McGaffey, New Mexico
Current Conditions -  °F | °C
As of 1:53 PM on Saturday 22 Nov 2014 (Local Time) from KGUP Reporting Station
Clear Clear  
Wind Chill: 54°   Ceiling: Unl
Heat Index: 54°   Visibility: 10mi
Dew Point: 17°   Wind: 15mph
Humidity: 23%   Direction: 240°WSW
Pressure: 30.01"   Gusts: 23mph
Location:  35.4212°N, 108.53°W
Report Text: KGUP 222053Z AUTO 24013G20KT 10SM CLR 12/M08 A3001 RMK AO2 SLP158 T01221083 58034
Loading
Personal Weather Stations






























Interactive Weather Map New forecast layout! Learn more

10-Day Weather Forecast

Advertisements
Track Severe Weather on mobile